Nearby METAR Reports

 

KSEE - San Diego/Santee, California, USA
Distance from station: E 4mi, 6km
Updated: Sun, 29-Jan-2023 6:10pm PST
Overcast
Overcast
 Wind from W
Wind: W 7 mph , 11 km/h
Temperature: 52°F , 11°C
Dew Point: 48°F , 9°C
Humidity: 88%
Barometer: 29.93 inHg , 1013.5 hPa
Clouds: Overcast
Visibility: 02 miles , 3 km
Cloud details: Few Clouds 300 ft
Mostly cloudy 1500 ft
Overcast 2600 ft
2023/01/30 02:10 KSEE 300210Z 27006KT 02SM FEW003 BKN015 OVC026 11/09 A2993
KMYF - San Diego/Mntgmy, California, USA
Distance from station: W 6mi, 10km
Updated: Sun, 29-Jan-2023 5:53pm PST
Overcast
Overcast
 Wind from WSW
Wind: WSW 9 mph , 15 km/h, Gust: 20 mph , 31 km/h
Temperature: 52°F , 11°C
Dew Point: 45°F , 7°C
Humidity: 77%
Barometer: 29.92 inHg , 1013.2 hPa
Clouds: Overcast
Visibility: 10 miles , 16 km
Cloud details: Mostly cloudy 2000 ft
Overcast 3500 ft
2023/01/30 01:53 KMYF 300153Z 24008G17KT 10SM BKN020 OVC035 11/07 A2992 RMK AO2 RAB23E38 SLP132 P0000 T01110067 $
 
KNKX - Miramar Nas/San, California, USA
Distance from station: WNW 7mi, 11km
Updated: Sun, 29-Jan-2023 6:07pm PST
Overcast
Overcast
 Wind from WSW
Wind: WSW 9 mph , 15 km/h
Temperature: 50°F , 10°C
Wind Chill: 46°F , 8°C
Dew Point: 45°F , 7°C
Humidity: 82%
Barometer: 29.92 inHg , 1013.2 hPa
Clouds: Overcast
Visibility: 10 miles , 16 km
Cloud details: Few Clouds 1800 ft
Mostly cloudy 2300 ft
Overcast 6000 ft
2023/01/30 02:07 KNKX 300207Z 25008KT 10SM FEW018 BKN023 OVC060 10/07 A2992 RMK AO2 T01000072 $
KSAN - San Diego, California, USA
Distance from station: WSW 11mi, 17km
Updated: Sun, 29-Jan-2023 5:51pm PST
Overcast
Overcast
 Wind from WSW
Wind: WSW 13 mph , 20 km/h, Gust: 20 mph , 31 km/h
Temperature: 55°F , 13°C
Dew Point: 43°F , 6°C
Humidity: 63%
Barometer: 29.95 inHg , 1014.2 hPa
Clouds: Overcast
Visibility: 7 miles , 11 km
Cloud details: Mostly cloudy 2400 ft
Overcast 3000 ft
2023/01/30 01:51 KSAN 300151Z 24011G17KT 7SM BKN024 OVC030 13/06 A2995 RMK AO2 SLP141 T01330061 $
 
KNZY - North Island Nas, California, USA
Distance from station: SW 13mi, 22km
Updated: Sun, 29-Jan-2023 6:19pm PST
Overcast
Overcast
 Wind from SW
Wind: SW 8 mph , 13 km/h
Temperature: 52°F , 11°C
Dew Point: 46°F , 8°C
Humidity: 82%
Barometer: 29.93 inHg , 1013.5 hPa
Clouds: Overcast
Visibility: 7 miles , 11 km
Cloud details: Partly cloudy 2800 ft
Overcast 3600 ft
2023/01/30 02:19 KNZY 300219Z 23007KT 7SM SCT028 OVC036 11/08 A2993 RMK AO2 RAE14 P0000 T01110078 $
KRNM - Ramona, California, USA
Distance from station: NNE 16mi, 26km
Updated: Sun, 29-Jan-2023 6:02pm PST
Overcast
Overcast
 Wind from W
Wind: W 9 mph , 15 km/h
Temperature: 48°F , 9°C
Wind Chill: 44°F , 7°C
Dew Point: 45°F , 7°C
Humidity: 87%
Barometer: 29.90 inHg , 1012.5 hPa
Clouds: Overcast
Visibility: 10 miles , 16 km
Cloud details: Few Clouds 1700 ft
Mostly cloudy 2100 ft
Overcast 6000 ft
2023/01/30 02:02 KRNM 300202Z 27008KT 10SM FEW017 BKN021 OVC060 09/07 A2990 RMK AO2 T00890067
 
KSDM - San Diego/Brown, California, USA
Distance from station: S 16mi, 26km
Updated: Sun, 29-Jan-2023 6:11pm PST
Overcast
Overcast
 Wind from W
Wind: W 9 mph , 15 km/h
Temperature: 50°F , 10°C
Wind Chill: 46°F , 8°C
Dew Point: 46°F , 8°C
Humidity: 88%
Barometer: 29.93 inHg , 1013.5 hPa
Clouds: Overcast
Visibility: 10 miles , 16 km
Cloud details: Partly cloudy 700 ft
Mostly cloudy 1100 ft
Overcast 6000 ft
2023/01/30 02:11 KSDM 300211Z 26008KT 10SM SCT007 BKN011 OVC060 10/08 A2993 RMK AO2 T01000083
KNRS - Imperial Beach, California, USA
Distance from station: SSW 18mi, 29km
Updated: Sun, 29-Jan-2023 5:53pm PST
Overcast
Overcast
 Wind from W
Wind: W 12 mph , 19 km/h
Temperature: 52°F , 11°C
Dew Point: 48°F , 9°C
Humidity: 88%
Barometer: 29.95 inHg , 1014.2 hPa
Clouds: Overcast
Visibility: 8 miles , 13 km
Cloud details: Partly cloudy 3400 ft
Mostly cloudy 4200 ft
Overcast 5500 ft
2023/01/30 01:53 KNRS 300153Z AUTO 27010KT 8SM SCT034 BKN042 OVC055 11/09 A2995 RMK AO2 SLP141 T01110089
 
MMTJ - Tijuana Intl Arp, Mexico
Distance from station: S 20mi, 32km
Updated: Sun, 29-Jan-2023 5:40pm PST
Mostly cloudy
Mostly cloudy
 Wind from WSW
Wind: WSW 6 mph , 9 km/h
Temperature: 52°F , 11°C
Dew Point: 48°F , 9°C
Humidity: 88%
Barometer: 29.95 inHg , 1014.2 hPa
Clouds: Mostly cloudy
Visibility: 8 miles , 13 km
Cloud details: Partly cloudy 2500 ft
Mostly cloudy 4000 ft
2023/01/30 01:40 MMTJ 300140Z 24005KT 8SM SCT025 BKN040 11/09 A2995 RMK 8/700 HZY
KCRQ - Carlsbad, California, USA
Distance from station: NW 26mi, 43km
Updated: Sun, 29-Jan-2023 6:20pm PST
Overcast
Overcast
 Wind from WSW
Wind: WSW 5 mph , 7 km/h
Temperature: 52°F , 11°C
Dew Point: 48°F , 9°C
Humidity: 88%
Barometer: 29.91 inHg , 1012.9 hPa
Clouds: Overcast
Visibility: 10 miles , 16 km
Cloud details: Partly cloudy 1100 ft
Mostly cloudy 2700 ft
Overcast 4800 ft
2023/01/30 02:20 KCRQ 300220Z 25004KT 10SM SCT011 BKN027 OVC048 11/09 A2991 RMK AO2 RAB04E17 P0000 T01060089
 
KOKB - Oceanside, California, USA
Distance from station: NW 33mi, 54km
Updated: Sun, 29-Jan-2023 5:52pm PST
Overcast
Overcast
 Wind from WNW
Wind: WNW 7 mph , 11 km/h
Temperature: 52°F , 11°C
Dew Point: 46°F , 8°C
Humidity: 82%
Barometer: 29.91 inHg , 1012.9 hPa
Clouds: Overcast
Visibility: 10 miles , 16 km
Cloud details: Few Clouds 3000 ft
Partly cloudy 4300 ft
Overcast 6000 ft
2023/01/30 01:52 KOKB 300152Z AUTO 29006KT 10SM FEW030 SCT043 OVC060 11/08 A2991 RMK AO2 SLP129 T01110083
KCZZ - Campo, California, USA
Distance from station: ESE 35mi, 56km
Updated: Mon, 26-Oct-2020 8:52am PDT
NOT Current

 Wind from NE
Wind: NE 14 mph , 22 km/h, Gust: 20 mph , 31 km/h
Temperature: 48°F , 9°C
Wind Chill: 42°F , 6°C
Dew Point: 27°F , -3°C
Humidity: 43%
Barometer: 29.99 inHg , 1015.6 hPa
2020/10/26 15:52 KCZZ 261552Z AUTO 05012G17KT 09/M03 A2999 RMK AO1 SLP140 T00891028
 
KNFG - Camp Pendleton, California, USA
Distance from station: NNW 37mi, 59km
Updated: Sun, 29-Jan-2023 5:52pm PST
Mostly cloudy
Mostly cloudy
 Wind from W
Wind: W 6 mph , 9 km/h
Temperature: 54°F , 12°C
Dew Point: 46°F , 8°C
Humidity: 77%
Barometer: 29.92 inHg , 1013.2 hPa
Clouds: Mostly cloudy
Visibility: 10 miles , 16 km
Cloud details: Partly cloudy 2700 ft
Mostly cloudy 5000 ft
Mostly cloudy 6000 ft
2023/01/30 01:52 KNFG 300152Z AUTO 28005KT 10SM SCT027 BKN050 BKN060 12/08 A2992 RMK AO2 SLP131 T01170078 $
KRIV - Riverside/March, California, USA
Distance from station: N 74mi, 119km
Updated: Sun, 29-Jan-2023 5:55pm PST
Nearby showers, Mostly cloudy
Nearby showers, Mostly cloudy
 Wind from NW
Wind: NW 3 mph , 6 km/h
Temperature: 46°F , 8°C
Dew Point: 45°F , 7°C
Humidity: 93%
Barometer: 29.88 inHg , 1011.9 hPa
Summary: Nearby Showers
Clouds: Mostly cloudy
Visibility: 10 miles , 16 km
Cloud details: Partly cloudy 2000 ft
Mostly cloudy 3200 ft
Mostly cloudy 5500 ft
2023/01/30 01:55 KRIV 300155Z 31003KT 10SM VCSH SCT020 BKN032 BKN055 08/07 A2988 RMK AO2A RAB21E36 SLP120 P0000 T00840069
 
KTRM - Thermal/Palm Spg, California, USA
Distance from station: NE 75mi, 121km
Updated: Sun, 29-Jan-2023 5:52pm PST
Few Clouds
Few Clouds
 Wind from NW
Wind: NW 8 mph , 13 km/h
Temperature: 61°F , 16°C
Dew Point: 34°F , 1°C
Humidity: 36%
Barometer: 29.81 inHg , 1009.5 hPa
Clouds: Few Clouds
Visibility: 10 miles , 16 km
Cloud details: Few Clouds 7500 ft
2023/01/30 01:52 KTRM 300152Z AUTO 32007KT 10SM FEW075 16/01 A2981 RMK AO2 SLP092 T01560011 $
KPSP - Palm Springs, California, USA
Distance from station: NNE 76mi, 122km
Updated: Sun, 29-Jan-2023 5:53pm PST
Mostly cloudy
Mostly cloudy
 Wind from NNW
Wind: NNW 9 mph , 15 km/h
Temperature: 57°F , 14°C
Dew Point: 37°F , 3°C
Humidity: 48%
Barometer: 29.83 inHg , 1010.2 hPa
Clouds: Mostly cloudy
Visibility: 10 miles , 16 km
Cloud details: Mostly cloudy 6500 ft
2023/01/30 01:53 KPSP 300153Z 33008KT 10SM BKN065 14/03 A2983 RMK AO2 WSHFT 0135 SLP102 T01440033
 
KSNA - Costa Mesa, California, USA
Distance from station: NW 76mi, 123km
Updated: Sun, 29-Jan-2023 5:53pm PST
Mostly cloudy
Mostly cloudy
 Wind from WSW
Wind: WSW 5 mph , 7 km/h
Temperature: 54°F , 12°C
Dew Point: 45°F , 7°C
Humidity: 72%
Barometer: 29.90 inHg , 1012.5 hPa
Clouds: Mostly cloudy
Visibility: 10 miles , 16 km
Cloud details: Few Clouds 2400 ft
Mostly cloudy 5500 ft
2023/01/30 01:53 KSNA 300153Z 25004KT 10SM FEW024 BKN055 12/07 A2990 RMK AO2 SLP125 T01220067
KNJK - El Centro Naf, California, USA
Distance from station: E 79mi, 127km
Updated: Sun, 29-Jan-2023 5:56pm PST
Clear
Clear
 
Temperature: 59°F , 15°C
Dew Point: 37°F , 3°C
Humidity: 45%
Barometer: 29.86 inHg , 1011.2 hPa
Clouds: Clear
Visibility: 10 miles , 16 km
2023/01/30 01:56 KNJK 300156Z AUTO 10SM CLR 15/03 A2986 RMK AO2 RAB08E21 SLP127 P0000 T01500033 $
 
KAJO - Corona Muni, California, USA
Distance from station: NNW 82mi, 132km
Updated: Sun, 29-Jan-2023 5:56pm PST
Overcast
Overcast
 Wind from WSW
Wind: WSW 5 mph , 7 km/h
Temperature: 52°F , 11°C
Dew Point: 43°F , 6°C
Humidity: 72%
Barometer: 29.90 inHg , 1012.5 hPa
Clouds: Overcast
Visibility: 10 miles , 16 km
Cloud details: Few Clouds 4100 ft
Overcast 6000 ft
2023/01/30 01:56 KAJO 300156Z AUTO 24004KT 10SM FEW041 OVC060 11/06 A2990 RMK AO2 RAE30 SLP124 P0000 T01060061